createdAt,value
2022-08-03T00:00:08.933Z,45.76
2022-08-03T00:01:08.407Z,48.98
2022-08-03T00:02:08.241Z,55.43
2022-08-03T00:03:08.470Z,46.25
2022-08-03T00:04:08.274Z,45.60
2022-08-03T00:05:08.302Z,50.60
2022-08-03T00:06:08.934Z,49.95
2022-08-03T00:07:08.290Z,46.57
2022-08-03T00:08:08.235Z,44.96
2022-08-03T00:09:08.226Z,44.79
2022-08-03T00:10:08.153Z,44.96
2022-08-03T00:11:08.183Z,44.96
2022-08-03T00:12:08.479Z,44.63
2022-08-03T00:13:08.111Z,52.05
2022-08-03T00:14:08.177Z,53.98
2022-08-03T00:15:08.301Z,56.24
2022-08-03T00:16:08.074Z,58.17
2022-08-03T00:17:08.086Z,48.50
2022-08-03T00:18:08.055Z,58.65
2022-08-03T00:19:08.067Z,48.98
2022-08-03T00:20:08.076Z,48.18
2022-08-03T00:21:08.035Z,55.43
2022-08-03T00:22:09.037Z,46.08
2022-08-03T00:23:08.004Z,45.76
2022-08-03T00:24:08.014Z,46.73
2022-08-03T00:25:08.007Z,49.31
2022-08-03T00:26:07.992Z,61.39
2022-08-03T00:27:07.981Z,45.12
2022-08-03T00:28:07.967Z,49.47
2022-08-03T00:29:07.965Z,53.98
2022-08-03T00:30:07.948Z,48.82
2022-08-03T00:31:07.944Z,48.34
2022-08-03T00:32:08.905Z,44.96
2022-08-03T00:33:08.317Z,45.44
2022-08-03T00:34:07.891Z,45.28
2022-08-03T00:35:09.799Z,46.89
2022-08-03T00:36:07.906Z,53.50
2022-08-03T00:37:07.847Z,50.60
2022-08-03T00:38:07.859Z,44.96
2022-08-03T00:39:07.831Z,44.96
2022-08-03T00:40:07.835Z,49.15
2022-08-03T00:41:07.828Z,45.28
2022-08-03T00:42:07.891Z,45.12
2022-08-03T00:43:07.857Z,55.11
2022-08-03T00:44:07.808Z,52.85
2022-08-03T00:45:07.769Z,47.21
2022-08-03T00:46:07.760Z,46.73
2022-08-03T00:47:07.756Z,55.59
2022-08-03T00:48:29.786Z,53.33
2022-08-03T00:49:08.768Z,49.31
2022-08-03T00:50:07.719Z,59.94
2022-08-03T00:51:07.684Z,47.37
2022-08-03T00:52:09.318Z,56.88
2022-08-03T00:53:07.721Z,47.86
2022-08-03T00:54:07.678Z,47.21
2022-08-03T00:55:07.662Z,46.73
2022-08-03T00:56:07.669Z,46.73
2022-08-03T00:57:07.796Z,46.73
2022-08-03T00:58:07.628Z,48.50
2022-08-03T00:59:07.632Z,53.66
2022-08-03T01:00:07.627Z,57.36
2022-08-03T01:01:08.385Z,53.98
2022-08-03T01:02:07.594Z,47.53
2022-08-03T01:03:07.601Z,52.05
2022-08-03T01:04:07.538Z,54.62
2022-08-03T01:05:07.536Z,47.53
2022-08-03T01:06:07.533Z,53.17
2022-08-03T01:07:11.075Z,56.72
2022-08-03T01:08:07.522Z,56.88
2022-08-03T01:09:07.509Z,54.95
2022-08-03T01:10:07.489Z,55.11
2022-08-03T01:11:07.485Z,47.53
2022-08-03T01:12:07.508Z,47.70
2022-08-03T01:13:07.497Z,55.43
2022-08-03T01:14:18.588Z,58.49
2022-08-03T01:15:08.442Z,49.15
2022-08-03T01:16:07.454Z,54.62
2022-08-03T01:17:07.434Z,60.26
2022-08-03T01:18:07.417Z,49.79
2022-08-03T01:19:07.402Z,50.27
2022-08-03T01:20:07.382Z,47.05
2022-08-03T01:21:07.346Z,45.60
2022-08-03T01:22:07.362Z,45.60
2022-08-03T01:23:07.380Z,49.79
2022-08-03T01:24:07.321Z,56.88
2022-08-03T01:25:07.329Z,48.18
2022-08-03T01:26:07.324Z,51.88
2022-08-03T01:27:07.305Z,59.30
2022-08-03T01:28:07.314Z,45.76
2022-08-03T01:29:07.270Z,46.41
2022-08-03T01:30:07.246Z,51.88
2022-08-03T01:31:07.246Z,45.76
2022-08-03T01:32:58.564Z,48.18
2022-08-03T01:33:08.764Z,51.40
2022-08-03T01:34:08.387Z,54.14
2022-08-03T01:35:08.198Z,61.39
2022-08-03T01:36:07.195Z,53.82
2022-08-03T01:37:07.180Z,49.31
2022-08-03T01:38:07.174Z,62.36
2022-08-03T01:39:07.149Z,55.27
2022-08-03T01:40:07.148Z,52.69
2022-08-03T01:41:07.130Z,58.33
2022-08-03T01:42:07.171Z,46.73
2022-08-03T01:43:07.114Z,47.21
2022-08-03T01:44:29.713Z,46.25
2022-08-03T01:45:08.099Z,45.60
2022-08-03T01:46:07.074Z,60.26
2022-08-03T01:47:07.066Z,56.72
2022-08-03T01:48:07.058Z,55.91
2022-08-03T01:49:09.266Z,57.52
2022-08-03T01:50:07.191Z,60.26
2022-08-03T01:51:07.019Z,46.57
2022-08-03T01:52:07.014Z,46.57
2022-08-03T01:53:07.011Z,45.44
2022-08-03T01:54:06.979Z,47.70
2022-08-03T01:55:06.991Z,46.41
2022-08-03T01:56:06.953Z,48.34
2022-08-03T01:57:06.966Z,47.05
2022-08-03T01:58:07.022Z,53.66
2022-08-03T01:59:06.933Z,53.66
2022-08-03T02:00:06.956Z,56.40
2022-08-03T02:01:06.974Z,46.73
2022-08-03T02:02:28.535Z,45.76
2022-08-03T02:03:07.904Z,49.47
2022-08-03T02:04:06.883Z,47.53
2022-08-03T02:05:10.679Z,48.82
2022-08-03T02:06:59.814Z,47.86
2022-08-03T02:07:08.823Z,48.18
2022-08-03T02:08:06.855Z,54.14
2022-08-03T02:09:06.816Z,57.20
2022-08-03T02:10:06.891Z,47.37
2022-08-03T02:11:06.799Z,47.37
2022-08-03T02:12:06.781Z,46.25
2022-08-03T02:13:06.771Z,45.76
2022-08-03T02:14:06.760Z,45.92
2022-08-03T02:15:06.764Z,51.72
2022-08-03T02:16:07.736Z,49.47
2022-08-03T02:17:06.727Z,46.41
2022-08-03T02:18:06.707Z,46.41
2022-08-03T02:19:06.695Z,49.15
2022-08-03T02:20:06.703Z,50.27
2022-08-03T02:21:10.979Z,48.02
2022-08-03T02:22:06.707Z,50.27
2022-08-03T02:23:06.660Z,54.62
2022-08-03T02:24:06.643Z,48.66
2022-08-03T02:25:06.631Z,52.69
2022-08-03T02:26:06.636Z,53.33
2022-08-03T02:27:06.605Z,47.70
2022-08-03T02:28:07.400Z,47.37
2022-08-03T02:29:06.588Z,56.24
2022-08-03T02:30:06.569Z,63.65
2022-08-03T02:31:06.608Z,53.66
2022-08-03T02:32:06.572Z,51.88
2022-08-03T02:33:07.342Z,53.17
2022-08-03T02:34:06.557Z,58.97
2022-08-03T02:35:06.528Z,57.04
2022-08-03T02:36:06.523Z,59.78
2022-08-03T02:37:06.513Z,56.07
2022-08-03T02:38:06.513Z,53.66
2022-08-03T02:39:06.504Z,51.24
2022-08-03T02:40:06.463Z,63.00
2022-08-03T02:41:06.501Z,55.11
2022-08-03T02:42:06.445Z,53.17
2022-08-03T02:43:06.459Z,51.08
2022-08-03T02:44:07.479Z,56.56
2022-08-03T02:45:06.441Z,61.71
2022-08-03T02:46:06.412Z,53.66
2022-08-03T02:47:06.401Z,62.68
2022-08-03T02:48:06.381Z,62.36
2022-08-03T02:49:40.478Z,54.62
2022-08-03T02:50:07.503Z,62.84
2022-08-03T02:51:06.385Z,57.52
2022-08-03T02:52:06.357Z,50.76
2022-08-03T02:53:07.332Z,60.10
2022-08-03T02:54:06.317Z,58.81
2022-08-03T02:55:06.289Z,58.65
2022-08-03T02:56:06.305Z,58.49
2022-08-03T02:57:06.324Z,55.11
2022-08-03T02:58:06.265Z,55.91
2022-08-03T02:59:06.265Z,54.62
2022-08-03T03:00:06.259Z,49.47
2022-08-03T03:01:06.314Z,56.24
2022-08-03T03:02:06.238Z,58.17
2022-08-03T03:03:06.225Z,57.04
2022-08-03T03:04:06.186Z,61.39
2022-08-03T03:05:52.306Z,60.75
2022-08-03T03:06:07.202Z,62.52
2022-08-03T03:07:06.165Z,58.17
2022-08-03T03:08:06.149Z,61.39
2022-08-03T03:09:07.161Z,64.45
2022-08-03T03:10:06.893Z,61.23
2022-08-03T03:11:06.117Z,59.14
2022-08-03T03:12:06.137Z,65.10
2022-08-03T03:13:06.097Z,59.30
2022-08-03T03:14:06.098Z,61.87
2022-08-03T03:15:06.079Z,65.58
2022-08-03T03:16:06.065Z,63.33
2022-08-03T03:17:06.162Z,59.30
2022-08-03T03:18:06.061Z,62.20
2022-08-03T03:19:06.050Z,64.78
2022-08-03T03:20:06.035Z,63.16
2022-08-03T03:21:06.025Z,63.00
2022-08-03T03:22:06.019Z,64.61
2022-08-03T03:23:06.026Z,63.81
2022-08-03T03:24:05.994Z,62.20
2022-08-03T03:25:05.991Z,64.78
2022-08-03T03:26:05.971Z,64.29
2022-08-03T03:27:06.002Z,65.58
2022-08-03T03:28:06.450Z,61.39
2022-08-03T03:29:05.938Z,66.55
2022-08-03T03:30:05.955Z,64.94
2022-08-03T03:31:05.918Z,66.39
2022-08-03T03:32:05.878Z,61.07
2022-08-03T03:33:06.902Z,65.42
2022-08-03T03:34:05.882Z,67.68
2022-08-03T03:35:05.915Z,64.61
2022-08-03T03:36:05.866Z,67.84
2022-08-03T03:37:05.834Z,66.39
2022-08-03T03:38:05.839Z,63.49
2022-08-03T03:39:15.459Z,68.32
2022-08-03T03:40:06.826Z,67.68
2022-08-03T03:41:05.822Z,66.55
2022-08-03T03:42:05.787Z,65.26
2022-08-03T03:49:49.846Z,65.26
2022-08-03T03:50:49.731Z,68.32
2022-08-03T03:51:49.633Z,67.51
2022-08-03T03:52:49.768Z,64.61
2022-08-03T03:53:49.662Z,61.39
2022-08-03T03:54:49.671Z,68.48
2022-08-03T03:55:59.807Z,67.68
2022-08-03T03:56:50.607Z,67.19
2022-08-03T03:57:49.847Z,68.00
2022-08-03T03:58:49.723Z,68.80
2022-08-03T03:59:49.632Z,66.71
2022-08-03T04:00:50.293Z,63.16
2022-08-03T04:01:59.157Z,66.71
2022-08-03T04:02:50.596Z,68.96
2022-08-03T04:03:49.543Z,67.03
2022-08-03T04:04:49.519Z,68.16
2022-08-03T04:05:49.644Z,68.00
2022-08-03T04:06:49.691Z,64.78
2022-08-03T04:07:50.267Z,70.42
2022-08-03T04:08:49.534Z,70.25
2022-08-03T04:09:49.492Z,66.55
2022-08-03T04:10:49.643Z,67.35
2022-08-03T04:11:49.458Z,66.71
2022-08-03T04:12:50.628Z,68.16
2022-08-03T04:13:49.504Z,68.96
2022-08-03T04:14:49.379Z,66.87
2022-08-03T04:15:49.401Z,66.55
2022-08-03T04:16:49.473Z,65.90
2022-08-03T04:17:49.372Z,66.39
2022-08-03T04:18:49.511Z,67.68
2022-08-03T04:19:49.388Z,63.81
2022-08-03T04:20:49.303Z,65.42
2022-08-03T04:21:49.357Z,68.80
2022-08-03T04:22:49.304Z,71.06
2022-08-03T04:23:49.360Z,62.52
2022-08-03T04:24:50.006Z,69.93
2022-08-03T04:25:49.264Z,69.77
2022-08-03T04:26:52.638Z,65.42
2022-08-03T04:28:08.063Z,67.84
2022-08-03T04:28:50.337Z,67.84
2022-08-03T04:29:49.308Z,67.35
2022-08-03T04:30:49.277Z,67.19
2022-08-03T04:31:49.207Z,65.42
2022-08-03T04:32:49.313Z,64.78
2022-08-03T04:33:49.198Z,70.74
2022-08-03T04:34:49.387Z,69.45
2022-08-03T04:36:02.025Z,67.03
2022-08-03T04:36:50.127Z,71.06
2022-08-03T04:37:49.197Z,68.64
2022-08-03T04:38:49.201Z,66.06
2022-08-03T04:39:49.192Z,70.74
2022-08-03T04:40:49.126Z,67.84
2022-08-03T04:42:07.874Z,69.61
2022-08-03T04:42:50.069Z,69.61
2022-08-03T04:43:49.097Z,68.96
2022-08-03T04:44:49.058Z,68.00
2022-08-03T04:45:49.134Z,69.13
2022-08-03T04:46:50.533Z,68.64
2022-08-03T04:47:49.084Z,70.74
2022-08-03T04:48:49.053Z,67.84
2022-08-03T04:49:49.014Z,65.42
2022-08-03T04:50:49.037Z,62.84
2022-08-03T04:51:49.010Z,68.96
2022-08-03T04:52:48.939Z,67.84
2022-08-03T04:53:49.116Z,66.55
2022-08-03T04:54:50.962Z,65.42
2022-08-03T04:55:49.042Z,64.78
2022-08-03T04:56:48.985Z,67.19
2022-08-03T04:57:48.975Z,69.93
2022-08-03T04:58:48.954Z,65.42
2022-08-03T04:59:48.922Z,68.32
2022-08-03T05:00:48.862Z,69.29
2022-08-03T05:01:48.931Z,65.10
2022-08-03T05:02:48.902Z,67.84
2022-08-03T05:03:48.982Z,63.33
2022-08-03T05:04:49.450Z,69.29
2022-08-03T05:05:49.868Z,68.64
2022-08-03T05:06:55.205Z,67.68
2022-08-03T05:07:51.061Z,70.09
2022-08-03T05:08:48.943Z,66.71
2022-08-03T05:09:52.428Z,69.61
2022-08-03T05:10:50.764Z,67.51
2022-08-03T05:11:48.821Z,68.16
2022-08-03T05:12:48.910Z,65.42
2022-08-03T05:13:48.834Z,64.61
2022-08-03T05:14:48.699Z,70.09
2022-08-03T05:15:48.745Z,68.16
2022-08-03T05:16:48.774Z,68.48
2022-08-03T05:17:48.843Z,68.64
2022-08-03T05:18:48.699Z,65.58
2022-08-03T05:19:48.702Z,66.39
2022-08-03T05:20:48.639Z,69.93
2022-08-03T05:21:52.207Z,63.33
2022-08-03T05:22:48.694Z,67.19
2022-08-03T05:23:48.688Z,67.19
2022-08-03T05:24:48.640Z,68.80
2022-08-03T05:25:49.908Z,66.87
2022-08-03T05:26:48.711Z,66.39
2022-08-03T05:27:48.698Z,68.64
2022-08-03T05:28:51.354Z,67.19
2022-08-03T05:29:48.668Z,66.06
2022-08-03T05:30:48.600Z,62.68
2022-08-03T05:31:49.376Z,66.23
2022-08-03T05:32:48.498Z,68.96
2022-08-03T05:33:48.472Z,69.13
2022-08-03T05:34:48.475Z,69.45
2022-08-03T05:36:00.685Z,68.64
2022-08-03T05:36:49.455Z,63.16
2022-08-03T05:37:54.659Z,66.39
2022-08-03T05:38:49.426Z,67.51
2022-08-03T05:39:48.411Z,68.48
2022-08-03T05:40:56.723Z,68.64
2022-08-03T05:41:49.396Z,68.96
2022-08-03T05:42:48.381Z,63.16
2022-08-03T05:43:48.425Z,66.87
2022-08-03T05:44:48.401Z,64.45
2022-08-03T05:45:48.358Z,69.29
2022-08-03T05:46:49.345Z,63.65
2022-08-03T05:47:48.346Z,64.45
2022-08-03T05:48:48.325Z,66.71
2022-08-03T05:49:48.348Z,70.42
2022-08-03T05:50:48.279Z,66.06
2022-08-03T05:51:48.289Z,67.68
2022-08-03T05:52:49.276Z,61.87
2022-08-03T05:53:48.265Z,68.16
2022-08-03T05:54:56.356Z,65.90
2022-08-03T05:55:54.190Z,63.33
2022-08-03T05:56:50.219Z,69.93
2022-08-03T05:57:49.274Z,64.94
2022-08-03T05:58:48.221Z,64.13
2022-08-03T05:59:55.724Z,64.45
2022-08-03T06:00:49.205Z,67.51
2022-08-03T06:01:48.320Z,66.06
2022-08-03T06:02:48.174Z,68.00
2022-08-03T06:03:48.174Z,63.97
2022-08-03T06:04:48.222Z,68.00
2022-08-03T06:05:58.345Z,68.64
2022-08-03T06:06:49.139Z,66.87
2022-08-03T06:07:48.098Z,63.00
2022-08-03T06:08:48.151Z,66.71
2022-08-03T06:10:34.171Z,61.39
2022-08-03T06:10:49.042Z,67.51
2022-08-03T06:11:48.072Z,65.42
2022-08-03T06:12:48.050Z,65.58
2022-08-03T06:13:48.066Z,63.16
2022-08-03T06:14:48.027Z,62.52
2022-08-03T06:15:48.019Z,65.26
2022-08-03T06:16:48.035Z,63.16
2022-08-03T06:17:47.995Z,65.58
2022-08-03T06:18:47.959Z,65.74
2022-08-03T06:19:47.955Z,62.04
2022-08-03T06:20:49.257Z,65.74
2022-08-03T06:21:47.970Z,63.49
2022-08-03T06:22:50.994Z,64.45
2022-08-03T06:23:52.758Z,66.39
2022-08-03T06:24:53.741Z,61.07
2022-08-03T06:25:48.895Z,60.91
2022-08-03T06:26:47.872Z,62.68
2022-08-03T06:27:47.877Z,65.90
2022-08-03T06:28:51.414Z,64.78
2022-08-03T06:29:47.868Z,63.65
2022-08-03T06:30:47.837Z,61.39
2022-08-03T06:31:47.900Z,63.81
2022-08-03T06:32:52.086Z,63.49
2022-08-03T06:34:30.621Z,64.78
2022-08-03T06:34:48.808Z,65.10
2022-08-03T06:35:47.804Z,63.81
2022-08-03T06:36:47.781Z,63.33
2022-08-03T06:37:47.781Z,66.06
2022-08-03T06:38:47.921Z,65.42
2022-08-03T06:39:47.795Z,62.68
2022-08-03T06:40:47.738Z,63.16
2022-08-03T06:41:47.753Z,67.03
2022-08-03T06:42:47.776Z,65.74
2022-08-03T06:44:03.079Z,67.19
2022-08-03T06:44:48.766Z,64.29
2022-08-03T06:45:47.753Z,64.29
2022-08-03T06:46:47.722Z,60.10
2022-08-03T06:47:47.700Z,60.59
2022-08-03T06:48:47.711Z,65.42
2022-08-03T06:50:16.362Z,65.26
2022-08-03T06:50:48.686Z,61.71
2022-08-03T06:52:04.288Z,64.29
2022-08-03T06:52:48.622Z,67.03
2022-08-03T06:53:47.610Z,64.61
2022-08-03T06:54:47.590Z,64.61
2022-08-03T06:55:51.219Z,64.94
2022-08-03T06:56:49.574Z,65.90
2022-08-03T06:57:47.545Z,65.58
2022-08-03T06:58:47.559Z,63.49
2022-08-03T07:00:07.553Z,64.61
2022-08-03T07:00:48.541Z,64.61
2022-08-03T07:01:47.542Z,63.49
2022-08-03T07:02:47.507Z,65.90
2022-08-03T07:03:52.293Z,64.13
2022-08-03T07:04:48.462Z,63.49
2022-08-03T07:05:47.491Z,64.29
2022-08-03T07:06:47.487Z,65.26
2022-08-03T07:07:47.439Z,64.45
2022-08-03T07:08:50.701Z,66.39
2022-08-03T07:09:56.908Z,62.84
2022-08-03T07:10:48.415Z,60.91
2022-08-03T07:11:47.439Z,64.13
2022-08-03T07:12:56.206Z,65.58
2022-08-03T07:13:48.455Z,64.78
2022-08-03T07:14:47.394Z,63.49
2022-08-03T07:15:55.403Z,63.65
2022-08-03T07:16:48.383Z,67.03
2022-08-03T07:17:47.328Z,63.81
2022-08-03T07:18:47.396Z,64.29
2022-08-03T07:19:47.279Z,64.29
2022-08-03T07:20:47.325Z,67.19
2022-08-03T07:21:47.288Z,65.10
2022-08-03T07:22:47.323Z,64.61
2022-08-03T07:23:47.331Z,62.04
2022-08-03T07:24:47.251Z,59.62
2022-08-03T07:25:47.286Z,67.68
2022-08-03T07:26:47.255Z,64.45
2022-08-03T07:27:51.643Z,63.33
2022-08-03T07:28:48.244Z,64.78
2022-08-03T07:29:47.249Z,60.59
2022-08-03T07:30:48.197Z,63.49
2022-08-03T07:31:47.236Z,60.26
2022-08-03T07:32:49.870Z,65.26
2022-08-03T07:33:47.211Z,60.59
2022-08-03T07:34:47.205Z,63.16
2022-08-03T07:35:47.141Z,63.00
2022-08-03T07:36:47.158Z,63.00
2022-08-03T07:37:54.577Z,65.58
2022-08-03T07:38:48.143Z,65.58
2022-08-03T07:39:47.140Z,60.26
2022-08-03T07:40:47.079Z,64.13
2022-08-03T07:41:47.090Z,60.10
2022-08-03T07:42:47.058Z,63.00
2022-08-03T07:43:47.063Z,61.55
2022-08-03T07:44:47.086Z,65.10
2022-08-03T07:45:47.040Z,59.46
2022-08-03T07:46:47.053Z,62.36
2022-08-03T07:47:53.447Z,63.81
2022-08-03T07:48:48.009Z,63.00
2022-08-03T07:49:47.035Z,59.62
2022-08-03T07:50:47.041Z,62.04
2022-08-03T07:51:46.965Z,60.10
2022-08-03T07:52:47.048Z,62.68
2022-08-03T07:53:47.401Z,58.65
2022-08-03T07:54:46.941Z,60.59
2022-08-03T07:55:46.945Z,57.04
2022-08-03T07:56:46.934Z,66.23
2022-08-03T07:57:46.912Z,63.49
2022-08-03T07:58:46.909Z,62.52
2022-08-03T07:59:56.720Z,63.33
2022-08-03T08:00:48.314Z,62.84
2022-08-03T08:01:46.972Z,64.29
2022-08-03T08:02:46.867Z,62.36
2022-08-03T08:03:52.330Z,54.79
2022-08-03T08:04:47.885Z,63.65
2022-08-03T08:05:46.894Z,64.61
2022-08-03T08:06:46.893Z,61.55
2022-08-03T08:07:51.108Z,61.55
2022-08-03T08:08:46.827Z,66.55
2022-08-03T08:09:47.826Z,63.00
2022-08-03T08:10:57.739Z,64.45
2022-08-03T08:11:48.357Z,64.94
2022-08-03T08:12:46.773Z,64.94
2022-08-03T08:13:47.743Z,61.55
2022-08-03T08:14:46.742Z,63.81
2022-08-03T08:15:46.816Z,64.61
2022-08-03T08:16:46.733Z,62.36
2022-08-03T08:17:46.757Z,65.58
2022-08-03T08:18:46.742Z,62.52
2022-08-03T08:19:51.232Z,65.58
2022-08-03T08:20:47.723Z,64.94
2022-08-03T08:21:53.269Z,66.55
2022-08-03T08:22:47.658Z,62.84
2022-08-03T08:23:55.645Z,62.36
2022-08-03T08:24:47.647Z,66.55
2022-08-03T08:25:46.687Z,64.61
2022-08-03T08:26:47.310Z,64.94
2022-08-03T08:28:30.619Z,66.55
2022-08-03T08:28:47.742Z,65.10
2022-08-03T08:29:56.347Z,63.16
2022-08-03T08:30:47.568Z,64.13
2022-08-03T08:31:46.935Z,64.61
2022-08-03T08:32:46.563Z,63.97
2022-08-03T08:34:03.506Z,65.42
2022-08-03T08:34:48.549Z,63.65
2022-08-03T08:35:46.545Z,67.03
2022-08-03T08:36:46.554Z,64.45
2022-08-03T08:37:51.275Z,62.36
2022-08-03T08:38:46.549Z,64.78
2022-08-03T08:39:46.481Z,62.84
2022-08-03T08:40:46.469Z,61.07
2022-08-03T08:41:47.974Z,62.36
2022-08-03T08:42:58.001Z,65.58
2022-08-03T08:43:48.553Z,62.84
2022-08-03T08:44:46.387Z,66.55
2022-08-03T08:45:46.449Z,64.45
2022-08-03T08:46:46.434Z,63.33
2022-08-03T08:47:50.867Z,61.55
2022-08-03T08:48:47.465Z,60.59
2022-08-03T08:49:58.383Z,62.68
2022-08-03T08:50:48.405Z,64.13
2022-08-03T08:51:59.004Z,60.42
2022-08-03T08:52:47.417Z,63.00
2022-08-03T08:53:46.441Z,57.85
2022-08-03T08:54:46.294Z,67.03
2022-08-03T08:55:58.921Z,63.49
2022-08-03T08:56:47.302Z,64.61
2022-08-03T08:57:46.405Z,64.78
2022-08-03T08:58:46.338Z,60.91
2022-08-03T08:59:47.818Z,59.14
2022-08-03T09:00:46.328Z,63.16
2022-08-03T09:01:46.325Z,62.04
2022-08-03T09:02:46.238Z,62.36
2022-08-03T09:03:46.244Z,65.58
2022-08-03T09:04:46.235Z,62.20
2022-08-03T09:05:55.695Z,65.90
2022-08-03T09:07:04.703Z,64.13
2022-08-03T09:07:48.266Z,63.00
2022-08-03T09:08:46.154Z,63.81
2022-08-03T09:10:08.839Z,63.81
2022-08-03T09:10:47.179Z,63.81
2022-08-03T09:11:52.421Z,65.58
2022-08-03T09:12:48.134Z,65.42
2022-08-03T09:13:46.783Z,59.62
2022-08-03T09:15:07.254Z,64.78
2022-08-03T09:15:59.088Z,64.61
2022-08-03T09:16:47.103Z,64.45
2022-08-03T09:17:50.906Z,58.81
2022-08-03T09:18:47.113Z,61.23
2022-08-03T09:20:03.667Z,60.75
2022-08-03T09:20:46.115Z,65.10
2022-08-03T09:21:46.239Z,63.65
2022-08-03T09:22:46.063Z,65.42
2022-08-03T09:24:01.684Z,64.94
2022-08-03T09:25:03.188Z,63.97
2022-08-03T09:25:48.004Z,64.45
2022-08-03T09:26:45.966Z,63.16
2022-08-03T09:27:45.995Z,62.68
2022-08-03T09:28:56.605Z,61.39
2022-08-03T09:29:46.922Z,62.20
2022-08-03T09:30:45.943Z,65.90
2022-08-03T09:31:46.234Z,67.19
2022-08-03T09:32:45.912Z,62.20
2022-08-03T09:33:45.896Z,64.94
2022-08-03T09:34:45.947Z,60.42
2022-08-03T09:35:54.387Z,62.36
2022-08-03T09:36:47.840Z,63.97
2022-08-03T09:38:12.039Z,63.81
2022-08-03T09:38:46.812Z,66.71
2022-08-03T09:39:45.839Z,60.10
2022-08-03T09:40:45.880Z,60.91
2022-08-03T09:41:45.816Z,61.71
2022-08-03T09:42:45.787Z,64.94
2022-08-03T09:43:45.815Z,59.94
2022-08-03T09:44:45.755Z,59.30
2022-08-03T09:45:45.742Z,63.33
2022-08-03T09:46:45.740Z,62.52
2022-08-03T09:47:45.775Z,63.16
2022-08-03T09:48:45.745Z,61.87
2022-08-03T09:49:45.770Z,59.94
2022-08-03T09:51:32.502Z,64.29
2022-08-03T09:52:32.567Z,64.61
2022-08-03T09:52:49.187Z,61.23
2022-08-03T09:53:57.207Z,64.78
2022-08-03T09:54:46.652Z,62.68
2022-08-03T09:56:34.728Z,64.78
2022-08-03T09:56:46.621Z,67.19
2022-08-03T09:57:45.647Z,65.26
2022-08-03T09:58:45.687Z,64.13
2022-08-03T09:59:45.596Z,63.49
2022-08-03T10:00:45.677Z,60.91
2022-08-03T10:01:45.607Z,64.61
2022-08-03T10:02:45.566Z,63.65
2022-08-03T10:04:02.683Z,63.00
2022-08-03T10:04:46.584Z,64.61
2022-08-03T10:05:45.568Z,62.20
2022-08-03T10:06:45.577Z,58.33
2022-08-03T10:07:46.025Z,64.45
2022-08-03T10:08:45.542Z,65.74
2022-08-03T10:09:45.541Z,60.10
2022-08-03T10:10:45.508Z,62.04
2022-08-03T10:11:45.487Z,61.71
2022-08-03T10:12:45.517Z,62.04
2022-08-03T10:13:45.481Z,63.65
2022-08-03T10:14:45.542Z,61.87
2022-08-03T10:16:21.197Z,65.42
2022-08-03T10:16:46.457Z,63.00
2022-08-03T10:17:45.421Z,64.45
2022-08-03T10:18:45.464Z,63.81
2022-08-03T10:19:45.437Z,60.10
2022-08-03T10:20:45.407Z,62.84
2022-08-03T10:21:45.426Z,64.13
2022-08-03T10:22:45.446Z,62.84
2022-08-03T10:23:45.345Z,63.33
2022-08-03T10:24:45.370Z,63.33
2022-08-03T10:25:45.364Z,62.68
2022-08-03T10:26:49.900Z,62.52
2022-08-03T10:27:45.311Z,61.87
2022-08-03T10:28:45.698Z,62.84
2022-08-03T10:29:46.387Z,62.20
2022-08-03T10:30:45.293Z,62.20
2022-08-03T10:31:57.568Z,68.16
2022-08-03T10:32:46.293Z,64.78
2022-08-03T10:33:50.133Z,66.71
2022-08-03T10:34:46.230Z,64.78
2022-08-03T10:35:45.293Z,59.94
2022-08-03T10:36:45.258Z,60.42
2022-08-03T10:37:56.560Z,61.07
2022-08-03T10:38:46.255Z,67.19
2022-08-03T10:39:45.422Z,64.13
2022-08-03T10:40:50.484Z,64.61
2022-08-03T10:41:47.182Z,67.35
2022-08-03T10:42:45.153Z,67.84
2022-08-03T10:43:45.181Z,64.13
2022-08-03T10:44:45.162Z,67.51
2022-08-03T10:45:45.179Z,64.45
2022-08-03T10:46:45.444Z,65.58
2022-08-03T10:47:45.123Z,61.71
2022-08-03T10:48:45.098Z,62.20
2022-08-03T10:49:45.115Z,61.07
2022-08-03T10:50:45.139Z,62.52
2022-08-03T10:51:45.122Z,63.33
2022-08-03T10:52:49.152Z,65.42
2022-08-03T10:53:54.308Z,64.29
2022-08-03T10:54:46.064Z,61.87
2022-08-03T10:55:45.062Z,65.58
2022-08-03T10:56:46.661Z,62.36
2022-08-03T10:57:45.105Z,65.10
2022-08-03T10:58:57.220Z,64.61
2022-08-03T10:59:46.015Z,63.65
2022-08-03T11:00:45.057Z,66.71
2022-08-03T11:01:58.261Z,64.61
2022-08-03T11:02:45.962Z,63.97
2022-08-03T11:03:44.972Z,65.26
2022-08-03T11:04:44.936Z,65.42
2022-08-03T11:05:44.967Z,63.97
2022-08-03T11:06:44.972Z,65.74
2022-08-03T11:07:44.903Z,64.94
2022-08-03T11:08:45.913Z,65.58
2022-08-03T11:09:44.908Z,58.97
2022-08-03T11:10:44.972Z,61.55
2022-08-03T11:11:44.883Z,66.06
2022-08-03T11:12:44.883Z,65.42
2022-08-03T11:13:44.880Z,62.20
2022-08-03T11:14:44.849Z,63.33
2022-08-03T11:15:44.899Z,61.71
2022-08-03T11:16:44.835Z,65.10
2022-08-03T11:17:46.704Z,60.26
2022-08-03T11:18:45.820Z,59.30
2022-08-03T11:19:58.000Z,60.59
2022-08-03T11:20:45.788Z,60.91
2022-08-03T11:21:44.800Z,64.29
2022-08-03T11:22:44.749Z,63.81
2022-08-03T11:24:03.622Z,66.23
2022-08-03T11:24:45.757Z,65.10
2022-08-03T11:25:54.779Z,65.90
2022-08-03T11:26:45.753Z,65.58
2022-08-03T11:27:44.696Z,65.10
2022-08-03T11:28:44.742Z,63.97
2022-08-03T11:29:44.748Z,60.91
2022-08-03T11:30:44.740Z,65.74
2022-08-03T11:31:50.130Z,62.52
2022-08-03T11:32:48.419Z,65.74
2022-08-03T11:33:44.646Z,63.16
2022-08-03T11:34:44.644Z,62.20
2022-08-03T11:35:44.681Z,64.94
2022-08-03T11:36:44.665Z,63.00
2022-08-03T11:38:03.353Z,62.04
2022-08-03T11:38:45.625Z,62.84
2022-08-03T11:39:44.581Z,60.91
2022-08-03T11:40:44.616Z,62.68
2022-08-03T11:41:45.176Z,63.49
2022-08-03T11:42:44.581Z,63.49
2022-08-03T11:43:44.557Z,65.90
2022-08-03T11:44:47.471Z,63.97
2022-08-03T11:45:44.522Z,62.52
2022-08-03T11:46:44.593Z,64.45
2022-08-03T11:47:50.518Z,62.36
2022-08-03T11:48:45.516Z,62.52
2022-08-03T11:49:44.588Z,63.16
2022-08-03T11:50:44.470Z,66.87
2022-08-03T11:51:44.558Z,65.42
2022-08-03T11:52:44.491Z,64.45
2022-08-03T11:53:44.433Z,62.84
2022-08-03T11:54:44.465Z,63.49
2022-08-03T11:55:44.509Z,63.81
2022-08-03T11:56:44.423Z,62.68
2022-08-03T11:59:09.363Z,67.19
2022-08-03T11:59:16.705Z,62.68
2022-08-03T11:59:45.442Z,60.26
2022-08-03T12:00:44.374Z,57.36
2022-08-03T12:01:45.194Z,61.23
2022-08-03T12:02:44.466Z,62.52
2022-08-03T12:03:44.388Z,61.39
2022-08-03T12:04:44.333Z,67.68
2022-08-03T12:05:51.151Z,67.19
2022-08-03T12:06:47.318Z,66.06
2022-08-03T12:08:03.310Z,63.81
2022-08-03T12:08:45.278Z,66.39
2022-08-03T12:09:44.279Z,65.26
2022-08-03T12:10:44.335Z,65.42
2022-08-03T12:11:56.219Z,59.94
2022-08-03T12:12:46.694Z,66.06
2022-08-03T12:14:44.815Z,61.87
2022-08-03T12:14:51.882Z,59.30
2022-08-03T12:15:44.195Z,65.26
2022-08-03T12:16:44.185Z,63.33
2022-08-03T12:17:44.215Z,65.10
2022-08-03T12:18:44.188Z,64.45
2022-08-03T12:19:44.154Z,65.42
2022-08-03T12:20:44.131Z,64.45
2022-08-03T12:21:44.236Z,63.33
2022-08-03T12:22:45.160Z,65.10
2022-08-03T12:23:44.191Z,65.58
2022-08-03T12:24:46.350Z,63.16
2022-08-03T12:25:44.250Z,65.74
2022-08-03T12:26:44.111Z,66.55
2022-08-03T12:27:45.071Z,65.58
2022-08-03T12:28:48.026Z,63.33
2022-08-03T12:29:58.247Z,66.39
2022-08-03T12:30:46.465Z,64.94
2022-08-03T12:31:44.088Z,60.59
2022-08-03T12:32:44.039Z,66.39
2022-08-03T12:33:44.896Z,67.84
2022-08-03T12:34:47.032Z,63.81
2022-08-03T12:35:52.046Z,63.49
2022-08-03T12:36:45.017Z,65.90
2022-08-03T12:37:43.998Z,65.42
2022-08-03T12:38:43.959Z,65.42
2022-08-03T12:40:02.107Z,64.94
2022-08-03T12:40:44.957Z,64.61
2022-08-03T12:41:44.008Z,63.33
2022-08-03T12:42:43.948Z,64.61
2022-08-03T12:43:44.900Z,66.87
2022-08-03T12:44:43.928Z,65.42
2022-08-03T12:45:43.916Z,65.42
2022-08-03T12:46:47.784Z,65.58
2022-08-03T12:47:43.869Z,67.19
2022-08-03T12:48:43.885Z,67.68
2022-08-03T12:49:43.860Z,65.26
2022-08-03T12:50:43.900Z,64.45
2022-08-03T12:51:43.840Z,63.49
2022-08-03T12:52:43.849Z,66.87
2022-08-03T12:53:43.832Z,66.23
2022-08-03T12:54:43.828Z,64.61
2022-08-03T12:56:04.700Z,61.71
2022-08-03T12:56:44.812Z,64.78
2022-08-03T12:57:43.828Z,62.52
2022-08-03T12:58:43.757Z,66.55